Terminal Aerodrome Forecast
Issued by NWS

Home | Current Version | Previous Version | Text Only | Print | Product List | Glossary On
Versions: 1 2 3 4 5 6 7 8 9 10 11 12 13
000
FTUS45 KABQ 050530
TAFFMN
TAF
KFMN 050530Z 0506/0606 13006KT P6SM VCSH BKN060
     FM050900 10005KT P6SM SCT060 BKN090
     FM051200 09006KT P6SM SCT060
     FM052000 18007KT P6SM VCTS BKN060CB
     FM060000 16006KT P6SM VCSH BKN070=

USA.gov is the U.S. government's official web portal to all federal, state and local government web resources and services.